< < Back
Terminal Aerodrome Forecast


Current Version              Previous Versions:   1  2  3  4  5  6  7  8  9  

Terminal Aerodrome Forecast

334
FTUS42 KGSP 251120
TAFAND
TAF
KAND 251120Z 2512/2612 07003KT P6SM SCT016
      TEMPO 2512/2515 BKN016
     FM251500 13005KT P6SM BKN025
     FM251800 17006KT P6SM BKN045
     FM252100 14007KT P6SM BKN050 PROB30 2521/2603 4SM TSRA BKN040CB
     FM260300 14005KT 5SM BR OVC015 PROB30 2603/2606 2SM TSRA
      OVC015CB
     FM260600 13005KT 5SM BR OVC008=



Latest METAR

379
SAUS70 KWBC 260100 RRB
MTRAND
METAR KAND 260056Z AUTO 00000KT 10SM FEW060 BKN080 25/17 A3022 RMK AO2
SLP224 T02500172


USA.gov is the U.S. government's official web portal to all federal, state and local government web resources and services.